Time;durP1;ratioP1;P1;durP2;ratioP2;P2;SDS_P1;SDS_P2;PMS_P1;PMS_P2;Temp;Humidity;BMP_temperature;BMP_pressure;BME280_temperature;BME280_humidity;BME280_pressure;Samples;Min_cycle;Max_cycle;Signal;HPM_P1;HPM_P2
2023/04/11 00:01:45;;;;;;;20.97;4.80;;;10.80;8.60;;;;;;4980781;28;20194;-96
2023/04/11 00:04:13;;;;;;;19.87;4.90;;;10.80;8.20;;;;;;4979475;28;20215;-95
2023/04/11 00:06:39;;;;;;;18.13;5.17;;;10.80;9.60;;;;;;4962927;28;20226;-93
2023/04/11 00:09:10;;;;;;;28.70;5.67;;;10.80;7.30;;;;;;4979958;28;20198;-93
2023/04/11 00:11:36;;;;;;;25.37;5.20;;;10.90;5.50;;;;;;4979259;28;20172;-93
2023/04/11 00:14:04;;;;;;;23.23;5.30;;;10.80;6.80;;;;;;4979225;28;20569;-94
2023/04/11 00:16:32;;;;;;;20.17;5.43;;;10.90;7.30;;;;;;4963894;28;20181;-94
2023/04/11 00:19:03;;;;;;;25.03;5.70;;;10.70;9.50;;;;;;4963258;28;20183;-93
2023/04/11 00:21:29;;;;;;;23.47;5.47;;;10.70;10.10;;;;;;4968393;28;20199;-93
2023/04/11 00:23:57;;;;;;;20.73;4.83;;;10.70;10.20;;;;;;4974234;28;20205;-93
2023/04/11 00:26:23;;;;;;;25.83;5.10;;;10.60;11.30;;;;;;5001404;28;20184;-93
2023/04/11 00:28:49;;;;;;;23.93;6.00;;;10.50;12.60;;;;;;4999946;28;20338;-92
2023/04/11 00:31:15;;;;;;;19.87;5.33;;;10.50;15.10;;;;;;4999409;28;20175;-92
2023/04/11 00:33:41;;;;;;;24.33;5.10;;;10.60;11.70;;;;;;5001957;28;20176;-92
2023/04/11 00:36:07;;;;;;;22.10;5.40;;;10.50;11.10;;;;;;4997993;28;20231;-92
2023/04/11 00:38:36;;;;;;;27.13;5.60;;;10.50;10.80;;;;;;4993166;28;20215;-94
2023/04/11 00:41:05;;;;;;;27.23;5.63;;;10.50;11.20;;;;;;4994933;28;20244;-93
2023/04/11 00:43:56;;;;;;;21.50;5.23;;;10.50;12.10;;;;;;4995692;28;20195;-94
2023/04/11 00:46:59;;;;;;;23.73;4.90;;;10.40;14.80;;;;;;4975216;28;20268;-95
2023/04/11 00:49:58;;;;;;;22.93;5.27;;;10.50;13.70;;;;;;4964947;29;20184;-93
2023/04/11 00:52:24;;;;;;;15.70;4.70;;;10.50;15.90;;;;;;4962495;28;20173;-93
2023/04/11 00:54:50;;;;;;;16.43;4.93;;;10.40;15.10;;;;;;4961544;28;20187;-93
2023/04/11 00:57:16;;;;;;;20.13;4.70;;;10.40;15.60;;;;;;4962367;28;20683;-94
2023/04/11 00:59:43;;;;;;;21.83;5.20;;;10.50;17.40;;;;;;4961468;29;20275;-92
2023/04/11 01:02:13;;;;;;;25.00;5.50;;;10.40;16.20;;;;;;4961767;29;20207;-93
2023/04/11 01:04:39;;;;;;;26.13;5.07;;;10.30;18.40;;;;;;4961915;29;20636;-92
2023/04/11 01:07:07;;;;;;;22.20;4.90;;;10.40;14.70;;;;;;4960941;29;20212;-92
2023/04/11 01:09:34;;;;;;;19.40;5.47;;;10.30;14.50;;;;;;4956674;29;20745;-92
2023/04/11 01:12:04;;;;;;;20.77;4.83;;;10.40;13.20;;;;;;4944028;29;20203;-94
2023/04/11 01:14:30;;;;;;;25.03;5.30;;;10.30;10.90;;;;;;4971140;28;20190;-89
2023/04/11 01:16:57;;;;;;;20.50;6.10;;;10.30;10.90;;;;;;5006873;28;20174;-91
2023/04/11 01:19:28;;;;;;;22.07;5.97;;;10.30;8.20;;;;;;4998700;28;20186;-91
2023/04/11 01:21:57;;;;;;;18.50;5.13;;;10.30;10.60;;;;;;4997329;28;20191;-91
2023/04/11 01:24:25;;;;;;;20.73;5.13;;;10.20;10.80;;;;;;4985994;28;20235;-94
2023/04/11 01:26:56;;;;;;;20.60;5.17;;;10.10;10.00;;;;;;4998329;28;20185;-94
2023/04/11 01:29:24;;;;;;;24.70;5.17;;;10.10;9.40;;;;;;4980662;28;20187;-94
2023/04/11 01:31:50;;;;;;;22.50;4.70;;;10.10;10.40;;;;;;4982129;28;20178;-94
2023/04/11 01:34:17;;;;;;;21.07;5.30;;;10.10;9.10;;;;;;4987677;28;20179;-93
2023/04/11 01:36:44;;;;;;;23.67;4.43;;;10.10;5.90;;;;;;4986378;28;20321;-92
2023/04/11 01:39:10;;;;;;;20.47;4.90;;;10.20;4.60;;;;;;4990123;28;20263;-90
2023/04/11 01:41:36;;;;;;;19.87;5.10;;;10.20;2.60;;;;;;4997756;28;20167;-93
2023/04/11 01:44:03;;;;;;;23.27;5.77;;;10.20;1.10;;;;;;5017884;28;20219;-93
2023/04/11 01:46:31;;;;;;;29.93;5.10;;;10.20;1.10;;;;;;5014716;28;20531;-92
2023/04/11 01:49:00;;;;;;;20.47;4.73;;;10.10;1.00;;;;;;5001844;28;20240;-92
2023/04/11 01:51:32;;;;;;;18.60;4.60;;;10.30;1.00;;;;;;5000886;28;20181;-92
2023/04/11 01:53:58;;;;;;;25.13;5.53;;;10.30;1.00;;;;;;5000259;28;20186;-93
2023/04/11 01:56:23;;;;;;;21.50;5.27;;;10.20;1.00;;;;;;5000100;28;20182;-93
2023/04/11 01:58:49;;;;;;;24.20;4.90;;;10.20;1.00;;;;;;5001935;28;20197;-92
2023/04/11 02:01:18;;;;;;;19.10;4.60;;;10.20;1.00;;;;;;5017475;28;20163;-92
2023/04/11 02:03:45;;;;;;;21.23;5.30;;;10.20;1.00;;;;;;5016977;28;20252;-93
2023/04/11 02:06:13;;;;;;;22.87;5.03;;;10.20;1.00;;;;;;5009326;28;20648;-92
2023/04/11 02:08:39;;;;;;;27.37;5.77;;;10.20;1.00;;;;;;5000429;28;20174;-93
2023/04/11 02:11:06;;;;;;;23.50;5.40;;;10.20;1.00;;;;;;5002396;28;20545;-93
2023/04/11 02:13:33;;;;;;;23.87;5.13;;;10.10;1.00;;;;;;5004040;28;20174;-92
2023/04/11 02:16:08;;;;;;;18.27;4.80;;;10.10;1.00;;;;;;5008176;28;20545;-92
2023/04/11 02:18:35;;;;;;;20.27;4.60;;;10.10;1.00;;;;;;5020326;28;20619;-93
2023/04/11 02:21:01;;;;;;;22.87;4.70;;;10.10;1.00;;;;;;4999894;28;20282;-93
2023/04/11 02:23:27;;;;;;;22.87;4.93;;;10.00;1.00;;;;;;4999110;28;20205;-93
2023/04/11 02:25:53;;;;;;;19.13;4.27;;;10.10;1.00;;;;;;5010025;28;20237;-92
2023/04/11 02:28:19;;;;;;;15.77;4.17;;;10.00;1.40;;;;;;5002117;28;20210;-93
2023/04/11 02:30:44;;;;;;;22.90;4.43;;;10.00;1.10;;;;;;4998995;28;20537;-93
2023/04/11 02:33:10;;;;;;;20.83;5.43;;;10.00;1.00;;;;;;4999725;28;20179;-92
2023/04/11 02:35:38;;;;;;;20.57;4.73;;;10.00;1.00;;;;;;5000429;28;20171;-93
2023/04/11 02:38:03;;;;;;;23.00;4.90;;;10.00;1.00;;;;;;5006704;28;20189;-92
2023/04/11 02:40:29;;;;;;;19.00;5.07;;;10.00;1.00;;;;;;5020904;28;20203;-93
2023/04/11 02:42:56;;;;;;;19.10;4.40;;;9.90;1.00;;;;;;5009756;28;20198;-93
2023/04/11 02:45:21;;;;;;;23.37;4.93;;;9.90;1.00;;;;;;5021566;28;20194;-93
2023/04/11 02:47:47;;;;;;;25.27;4.93;;;9.90;1.00;;;;;;5021000;28;20181;-93
2023/04/11 02:50:13;;;;;;;21.27;4.73;;;9.80;1.00;;;;;;5016412;28;20665;-92
2023/04/11 02:52:41;;;;;;;19.20;4.13;;;9.80;1.00;;;;;;5001760;28;20182;-92
2023/04/11 02:55:18;;;;;;;19.43;4.47;;;9.80;2.00;;;;;;5003200;28;20181;-92
2023/04/11 02:57:48;;;;;;;18.30;4.87;;;9.80;1.00;;;;;;5003957;28;20173;-92
2023/04/11 03:00:14;;;;;;;18.23;4.50;;;9.90;1.00;;;;;;5012315;28;20159;-92
2023/04/11 03:02:40;;;;;;;20.47;4.73;;;9.80;1.00;;;;;;5017738;28;20186;-91
2023/04/11 03:05:06;;;;;;;21.27;4.77;;;9.70;1.00;;;;;;5002685;28;20197;-90
2023/04/11 03:07:33;;;;;;;20.83;4.70;;;9.70;1.00;;;;;;4998168;28;20187;-92
2023/04/11 03:10:00;;;;;;;16.20;4.27;;;9.70;1.00;;;;;;4998989;28;20179;-91
2023/04/11 03:12:26;;;;;;;24.73;4.60;;;9.60;1.00;;;;;;4998336;28;20174;-94
2023/04/11 03:14:52;;;;;;;16.77;4.07;;;9.50;1.00;;;;;;4997602;28;20597;-94
2023/04/11 03:17:18;;;;;;;17.60;4.47;;;9.60;1.00;;;;;;4997917;28;20211;-93
2023/04/11 03:19:44;;;;;;;17.83;3.87;;;9.50;1.00;;;;;;5008165;28;20162;-92
2023/04/11 03:22:10;;;;;;;20.87;4.87;;;9.60;1.00;;;;;;5007306;28;20281;-93
2023/04/11 03:24:38;;;;;;;20.63;5.10;;;9.60;1.00;;;;;;4997933;28;20214;-90
2023/04/11 03:27:04;;;;;;;20.60;4.67;;;9.60;1.00;;;;;;4997949;28;20301;-92
2023/04/11 03:29:31;;;;;;;23.00;4.30;;;9.50;1.00;;;;;;4999159;28;20178;-89
2023/04/11 03:31:57;;;;;;;18.50;4.67;;;9.50;1.00;;;;;;5000947;28;20174;-91
2023/04/11 03:34:24;;;;;;;17.87;3.80;;;9.40;1.00;;;;;;5010684;28;20244;-91
2023/04/11 03:36:50;;;;;;;19.97;4.23;;;9.50;1.00;;;;;;5000817;28;20265;-91
2023/04/11 03:39:20;;;;;;;15.53;4.30;;;9.50;1.00;;;;;;4998507;28;20205;-92
2023/04/11 03:41:47;;;;;;;21.03;5.23;;;9.50;1.00;;;;;;4999783;28;20174;-92
2023/04/11 03:44:13;;;;;;;18.50;4.73;;;9.40;1.00;;;;;;5010452;28;20220;-91
2023/04/11 03:46:39;;;;;;;18.40;4.37;;;9.30;5.00;;;;;;4998501;28;20193;-91
2023/04/11 03:49:04;;;;;;;20.33;4.87;;;9.40;5.70;;;;;;4998487;28;20684;-92
2023/04/11 03:51:31;;;;;;;19.50;4.87;;;9.50;5.90;;;;;;4998525;28;20178;-92
2023/04/11 03:53:57;;;;;;;23.50;5.43;;;9.50;5.70;;;;;;4997340;28;20183;-93
2023/04/11 03:56:22;;;;;;;22.60;4.97;;;9.40;1.00;;;;;;4999197;28;20181;-91
2023/04/11 03:58:48;;;;;;;26.40;4.57;;;9.40;1.20;;;;;;4997452;28;20176;-90
2023/04/11 04:01:14;;;;;;;21.90;4.80;;;9.20;6.60;;;;;;4998992;28;20175;-92
2023/04/11 04:03:39;;;;;;;20.63;4.97;;;9.20;11.60;;;;;;4998072;28;20256;-91
2023/04/11 04:06:05;;;;;;;18.87;3.97;;;9.40;12.00;;;;;;5000106;28;20185;-93
2023/04/11 04:08:31;;;;;;;20.67;3.93;;;9.30;7.50;;;;;;4999277;28;20194;-93
2023/04/11 04:10:57;;;;;;;16.20;4.20;;;9.30;9.20;;;;;;4998173;28;20595;-91
2023/04/11 04:13:22;;;;;;;16.47;4.13;;;9.20;9.20;;;;;;5013586;28;20531;-92
2023/04/11 04:15:50;;;;;;;21.73;5.93;;;9.20;11.00;;;;;;5005656;28;20178;-91
2023/04/11 04:18:16;;;;;;;17.60;4.40;;;9.20;12.90;;;;;;5015865;28;20182;-90
2023/04/11 04:20:41;;;;;;;18.73;4.40;;;9.20;10.60;;;;;;5012735;28;20253;-91
2023/04/11 04:23:12;;;;;;;20.47;4.53;;;9.20;16.50;;;;;;4998410;28;20313;-93
2023/04/11 04:25:41;;;;;;;26.50;4.93;;;9.30;13.10;;;;;;4998352;28;20220;-93
2023/04/11 04:28:08;;;;;;;22.63;4.40;;;9.30;8.10;;;;;;4997592;28;20249;-92
2023/04/11 04:30:36;;;;;;;22.83;4.83;;;9.30;4.00;;;;;;4997831;28;20265;-92
2023/04/11 04:33:57;;;;;;;16.90;4.53;;;9.30;6.40;;;;;;5002749;28;20182;-92
2023/04/11 04:36:03;;;;;;;20.60;4.67;;;9.20;7.80;;;;;;5027311;28;20182;-91
2023/04/11 04:39:10;;;;;;;20.10;4.90;;;9.10;11.50;;;;;;5000914;28;20186;-92
2023/04/11 04:41:47;;;;;;;21.13;5.03;;;9.20;16.10;;;;;;5012757;28;20237;-92
2023/04/11 04:44:19;;;;;;;22.93;4.70;;;9.20;14.00;;;;;;5016023;28;20209;-93
2023/04/11 04:46:45;;;;;;;20.80;4.57;;;9.20;12.30;;;;;;5016236;28;20186;-93
2023/04/11 04:49:11;;;;;;;19.37;4.30;;;9.30;11.20;;;;;;5013707;28;20190;-89
2023/04/11 04:51:39;;;;;;;17.43;4.53;;;9.20;10.90;;;;;;5017399;28;20217;-92
2023/04/11 04:54:13;;;;;;;18.07;4.80;;;9.10;12.90;;;;;;5022231;28;20178;-92
2023/04/11 04:56:42;;;;;;;19.63;5.33;;;9.20;14.60;;;;;;5000934;28;20230;-94
2023/04/11 04:59:13;;;;;;;25.07;4.77;;;9.10;13.90;;;;;;5010228;28;20169;-91
2023/04/11 05:01:54;;;;;;;17.20;4.23;;;9.00;20.60;;;;;;5024184;28;20170;-92
2023/04/11 05:04:53;;;;;;;24.90;4.80;;;9.00;19.10;;;;;;5005451;28;20261;-92
2023/04/11 05:07:17;;;;;;;19.47;4.27;;;9.00;17.50;;;;;;5025086;28;20682;-91
2023/04/11 05:09:43;;;;;;;22.13;4.13;;;9.00;15.70;;;;;;5007737;28;20198;-90
2023/04/11 05:12:12;;;;;;;19.23;4.43;;;9.10;18.10;;;;;;5007027;28;20174;-90
2023/04/11 05:14:39;;;;;;;24.27;4.67;;;9.00;15.30;;;;;;5014202;28;20186;-92
2023/04/11 05:17:05;;;;;;;16.13;3.90;;;9.00;14.20;;;;;;5001990;28;20221;-92
2023/04/11 05:19:59;;;;;;;12.60;3.50;;;9.00;12.80;;;;;;5002996;28;20174;-93
2023/04/11 05:22:26;;;;;;;14.87;4.23;;;9.10;11.30;;;;;;5003753;28;20198;-93
2023/04/11 05:24:53;;;;;;;21.30;4.20;;;9.00;14.50;;;;;;5003773;28;20584;-93
2023/04/11 05:27:22;;;;;;;18.27;4.50;;;9.00;11.70;;;;;;5037245;28;20174;-91
2023/04/11 05:29:47;;;;;;;15.03;3.60;;;9.00;15.00;;;;;;5005205;28;20182;-93
2023/04/11 05:32:13;;;;;;;20.23;4.30;;;9.00;13.70;;;;;;5001127;28;20175;-93
2023/04/11 05:34:53;;;;;;;17.90;4.20;;;9.00;13.60;;;;;;5000663;28;20623;-92
2023/04/11 05:37:19;;;;;;;15.17;4.60;;;9.00;11.00;;;;;;5000805;28;20669;-91
2023/04/11 05:39:46;;;;;;;20.17;4.80;;;9.20;9.90;;;;;;5003415;28;20186;-93
2023/04/11 05:42:11;;;;;;;20.70;4.77;;;9.10;8.00;;;;;;5004319;28;20166;-94
2023/04/11 05:44:38;;;;;;;15.53;4.53;;;9.00;9.30;;;;;;5020760;28;20202;-92
2023/04/11 05:47:04;;;;;;;18.37;4.57;;;9.10;12.50;;;;;;5023172;28;20197;-95
2023/04/11 05:50:04;;;;;;;15.03;4.13;;;9.20;6.60;;;;;;5011264;28;20233;-93
2023/04/11 05:52:32;;;;;;;19.97;3.67;;;9.20;1.00;;;;;;5003313;28;20170;-94
2023/04/11 05:55:03;;;;;;;24.40;4.87;;;9.20;2.70;;;;;;4999718;28;20174;-93
2023/04/11 05:57:31;;;;;;;21.83;4.93;;;9.20;3.20;;;;;;5000325;28;20174;-93
2023/04/11 06:00:00;;;;;;;19.00;4.20;;;9.20;3.60;;;;;;4998873;28;20202;-94
2023/04/11 06:02:27;;;;;;;17.93;4.37;;;9.20;3.10;;;;;;4999616;28;20174;-92
2023/04/11 06:04:53;;;;;;;14.87;4.17;;;9.40;1.00;;;;;;4999746;28;20258;-91
2023/04/11 06:07:20;;;;;;;16.43;4.33;;;9.40;1.00;;;;;;4999061;28;20218;-92
2023/04/11 06:09:46;;;;;;;18.87;4.43;;;9.40;1.00;;;;;;5000359;28;20178;-91
2023/04/11 06:12:15;;;;;;;21.93;4.53;;;9.30;1.00;;;;;;4985946;28;20245;-93
2023/04/11 06:14:41;;;;;;;17.10;3.97;;;9.30;1.00;;;;;;5001506;28;20170;-93
2023/04/11 06:17:08;;;;;;;15.57;3.93;;;9.30;1.00;;;;;;5001468;28;20179;-92
2023/04/11 06:19:35;;;;;;;21.23;4.27;;;9.50;1.00;;;;;;5015602;28;20182;-90
2023/04/11 06:22:55;;;;;;;;;;;;;;;;;;;;;
2023/04/11 06:25:33;;;;;;;;;;;;;;;;;;;;;
2023/04/11 06:28:01;;;;;;;16.53;3.50;;;9.40;1.00;;;;;;5024236;28;20237;-94
2023/04/11 06:30:52;;;;;;;14.47;4.40;;;9.50;1.00;;;;;;5008554;28;20564;-92
2023/04/11 06:33:27;;;;;;;16.17;3.63;;;9.50;1.00;;;;;;5004409;28;20242;-92
2023/04/11 06:35:52;;;;;;;16.70;4.00;;;9.50;1.00;;;;;;5005074;28;20174;-92
2023/04/11 06:38:18;;;;;;;14.97;3.60;;;9.50;1.00;;;;;;5015388;28;20250;-90
2023/04/11 06:40:53;;;;;;;16.87;4.23;;;9.50;1.00;;;;;;5012111;28;20544;-91
2023/04/11 06:43:25;;;;;;;16.10;3.20;;;9.70;1.00;;;;;;5022389;28;20260;-92
2023/04/11 06:45:51;;;;;;;15.40;4.00;;;9.70;1.00;;;;;;4999137;28;20201;-92
2023/04/11 06:48:23;;;;;;;15.53;3.73;;;9.90;1.00;;;;;;5001009;28;20178;-92
2023/04/11 06:50:51;;;;;;;15.90;3.43;;;9.90;1.00;;;;;;4998970;28;20182;-93
2023/04/11 06:53:20;;;;;;;15.90;4.07;;;9.80;1.00;;;;;;4999060;28;20171;-93
2023/04/11 06:55:49;;;;;;;11.80;3.50;;;10.40;1.00;;;;;;4997535;28;20665;-92
2023/04/11 06:58:15;;;;;;;18.17;4.17;;;10.10;1.00;;;;;;4998733;28;20175;-93
2023/04/11 07:00:42;;;;;;;16.23;4.23;;;10.10;1.00;;;;;;5006926;28;20203;-92
2023/04/11 07:03:08;;;;;;;15.00;3.63;;;10.20;1.00;;;;;;5015229;28;20277;-90
2023/04/11 07:05:36;;;;;;;13.10;3.60;;;10.00;1.00;;;;;;5014752;28;20190;-92
2023/04/11 07:08:05;;;;;;;13.77;3.70;;;10.10;1.00;;;;;;4991711;28;20182;-94
2023/04/11 07:10:32;;;;;;;11.10;2.80;;;10.10;1.00;;;;;;5002006;28;20175;-92
2023/04/11 07:12:59;;;;;;;17.93;3.43;;;10.10;1.00;;;;;;5003362;28;20182;-92
2023/04/11 07:15:31;;;;;;;20.13;3.67;;;10.10;1.00;;;;;;5005051;28;20647;-96
2023/04/11 07:17:58;;;;;;;16.53;6.47;;;10.10;1.00;;;;;;5019885;28;20185;-91
2023/04/11 07:20:24;;;;;;;10.80;2.80;;;10.20;1.00;;;;;;5009773;28;20174;-91
2023/04/11 07:22:55;;;;;;;18.67;4.17;;;10.20;1.00;;;;;;5033638;28;20193;-92
2023/04/11 07:25:26;;;;;;;19.03;4.83;;;10.10;1.00;;;;;;5002711;28;20174;-90
2023/04/11 07:27:57;;;;;;;14.47;3.13;;;10.10;1.00;;;;;;5003732;28;20178;-92
2023/04/11 07:30:30;;;;;;;13.23;3.50;;;10.10;1.00;;;;;;5017792;28;20225;-89
2023/04/11 07:32:58;;;;;;;15.53;3.23;;;10.20;1.00;;;;;;5019216;28;20173;-91
2023/04/11 07:35:35;;;;;;;16.70;3.20;;;10.30;1.00;;;;;;5016392;28;20673;-93
2023/04/11 07:38:13;;;;;;;12.40;3.90;;;10.30;1.00;;;;;;5017731;28;20248;-93
2023/04/11 07:40:39;;;;;;;15.27;3.23;;;10.30;1.00;;;;;;5013596;28;20170;-91
2023/04/11 07:43:04;;;;;;;20.23;6.70;;;10.20;1.00;;;;;;5001809;28;20269;-94
2023/04/11 07:45:39;;;;;;;13.50;4.77;;;10.30;1.00;;;;;;5010356;28;20190;-95
2023/04/11 07:48:10;;;;;;;19.33;5.57;;;10.50;1.00;;;;;;5012692;28;20209;-94
2023/04/11 07:50:36;;;;;;;15.20;4.07;;;10.70;1.00;;;;;;4992323;28;20178;-91
2023/04/11 07:53:02;;;;;;;29.83;11.30;;;10.70;1.00;;;;;;4998320;28;20241;-93
2023/04/11 07:55:28;;;;;;;12.13;3.27;;;10.70;1.00;;;;;;4977711;28;20586;-96
2023/04/11 07:57:54;;;;;;;12.17;3.27;;;10.80;1.00;;;;;;4983494;28;20175;-96
2023/04/11 08:00:21;;;;;;;12.10;3.13;;;11.00;1.00;;;;;;4987019;28;20186;-95
2023/04/11 08:02:48;;;;;;;9.60;2.60;;;10.90;1.00;;;;;;4983153;28;20179;-96
2023/04/11 08:05:14;;;;;;;9.77;2.80;;;11.00;1.00;;;;;;4964075;28;20242;-93
2023/04/11 08:07:40;;;;;;;14.77;7.10;;;10.90;1.00;;;;;;4980529;28;20310;-95
2023/04/11 08:10:26;;;;;;;12.00;2.87;;;10.90;1.00;;;;;;4991795;28;20168;-90
2023/04/11 08:13:13;;;;;;;15.17;5.43;;;11.10;1.00;;;;;;4966800;28;20223;-90
2023/04/11 08:15:41;;;;;;;14.13;5.50;;;11.40;1.00;;;;;;4998901;28;20175;-94
2023/04/11 08:18:12;;;;;;;18.37;5.27;;;11.20;1.00;;;;;;4980731;28;20214;-94
2023/04/11 08:20:39;;;;;;;15.53;4.73;;;11.10;1.00;;;;;;4981845;28;20170;-88
2023/04/11 08:23:10;;;;;;;11.83;3.23;;;11.30;1.00;;;;;;5001288;28;20215;-87
2023/04/11 08:26:06;;;;;;;10.90;3.20;;;11.10;1.00;;;;;;5001936;28;20160;-90
2023/04/11 08:28:56;;;;;;;11.90;3.27;;;11.00;1.00;;;;;;4975193;28;20183;-88
2023/04/11 08:31:46;;;;;;;11.53;3.60;;;11.20;1.00;;;;;;5000834;28;20186;-90
2023/04/11 08:34:12;;;;;;;13.83;4.63;;;11.20;1.00;;;;;;4976329;28;20203;-89
2023/04/11 08:36:37;;;;;;;12.67;2.97;;;11.40;1.00;;;;;;4990016;28;20645;-90
2023/04/11 08:39:03;;;;;;;13.47;4.53;;;11.40;1.00;;;;;;4985149;28;20202;-94
2023/04/11 08:41:29;;;;;;;13.67;6.33;;;11.50;1.00;;;;;;5000244;28;20164;-89
2023/04/11 08:43:56;;;;;;;16.10;5.37;;;11.40;99.90;;;;;;4997307;28;20207;-90
2023/04/11 08:46:29;;;;;;;9.30;2.20;;;11.50;99.90;;;;;;4987339;28;20267;-93
2023/04/11 08:48:56;;;;;;;10.67;2.50;;;11.40;99.90;;;;;;4982866;28;20176;-94
2023/04/11 08:51:27;;;;;;;8.70;2.20;;;11.50;99.90;;;;;;4983274;28;20202;-95
2023/04/11 08:53:56;;;;;;;9.70;2.10;;;11.60;99.90;;;;;;4986441;28;20180;-92
2023/04/11 08:56:24;;;;;;;10.00;2.47;;;11.70;99.90;;;;;;4953535;28;20179;-92
2023/04/11 08:58:51;;;;;;;8.87;2.33;;;11.70;99.90;;;;;;4967998;28;20250;-91
2023/04/11 09:01:43;;;;;;;11.03;2.10;;;11.90;99.90;;;;;;4994382;28;20183;-91
2023/04/11 09:04:10;;;;;;;8.00;3.57;;;11.60;99.90;;;;;;4993968;28;20243;-88
2023/04/11 09:06:38;;;;;;;9.50;4.23;;;11.60;99.90;;;;;;4999064;28;20187;-89
2023/04/11 09:09:05;;;;;;;12.70;3.93;;;11.60;99.90;;;;;;5000040;28;20199;-90
2023/04/11 09:11:50;;;;;;;21.10;9.83;;;11.90;99.90;;;;;;4967131;28;20251;-91
2023/04/11 09:14:23;;;;;;;11.43;4.70;;;12.10;99.90;;;;;;4996022;28;20183;-91
2023/04/11 09:17:12;;;;;;;6.87;1.63;;;12.10;99.90;;;;;;4993095;28;20175;-89
2023/04/11 09:19:41;;;;;;;9.87;2.77;;;12.20;99.90;;;;;;4998358;28;20171;-89
2023/04/11 09:22:07;;;;;;;6.30;1.97;;;12.10;12.20;;;;;;4991661;28;20188;-92
2023/04/11 09:24:33;;;;;;;6.63;1.87;;;11.90;81.20;;;;;;4989329;28;20255;-90
2023/04/11 09:27:06;;;;;;;8.83;2.40;;;11.90;12.90;;;;;;4970457;28;20175;-93
2023/04/11 09:29:44;;;;;;;7.20;2.40;;;12.00;1.00;;;;;;4987640;28;20212;-90
2023/04/11 09:32:27;;;;;;;9.07;2.67;;;12.20;1.00;;;;;;4991575;28;20196;-89
2023/04/11 09:35:09;;;;;;;11.07;2.87;;;12.30;1.00;;;;;;4993023;28;20196;-91
2023/04/11 09:37:49;;;;;;;8.83;2.00;;;12.50;1.00;;;;;;4992570;28;20175;-93
2023/04/11 09:40:17;;;;;;;24.37;12.80;;;12.70;13.20;;;;;;4986855;28;20242;-94
2023/04/11 09:42:49;;;;;;;11.80;2.73;;;13.00;1.00;;;;;;4989250;28;20188;-93
2023/04/11 09:45:17;;;;;;;8.60;2.13;;;13.00;1.00;;;;;;4998163;28;20191;-95
2023/04/11 09:47:52;;;;;;;9.17;2.50;;;13.00;1.00;;;;;;4997578;28;20196;-91
2023/04/11 09:50:19;;;;;;;12.60;2.77;;;13.10;1.00;;;;;;4995694;28;20255;-89
2023/04/11 09:52:45;;;;;;;8.67;3.00;;;13.00;1.00;;;;;;4965069;28;20547;-89
2023/04/11 09:55:23;;;;;;;10.80;3.70;;;13.10;1.00;;;;;;4978285;28;20196;-89
2023/04/11 09:57:53;;;;;;;9.80;3.00;;;12.90;1.00;;;;;;4973579;28;20176;-91
2023/04/11 10:00:21;;;;;;;11.97;5.63;;;12.90;1.00;;;;;;4982929;28;20243;-89
2023/04/11 10:02:51;;;;;;;9.73;3.23;;;12.90;1.00;;;;;;4984595;28;20172;-91
2023/04/11 10:05:19;;;;;;;18.87;9.30;;;13.10;1.00;;;;;;4970504;28;20212;-90
2023/04/11 10:07:52;;;;;;;7.23;2.10;;;12.90;99.90;;;;;;4963601;28;20211;-88
2023/04/11 10:10:23;;;;;;;7.90;2.83;;;12.80;99.90;;;;;;4981302;28;20207;-88
2023/04/11 10:12:59;;;;;;;6.83;2.30;;;12.90;1.00;;;;;;4999688;28;20152;-87
2023/04/11 10:15:29;;;;;;;8.30;3.43;;;13.00;99.90;;;;;;4978162;28;20639;-92
2023/04/11 10:18:12;;;;;;;9.37;2.57;;;13.00;99.90;;;;;;4985817;28;20218;-92
2023/04/11 10:20:47;;;;;;;6.80;2.00;;;12.90;99.90;;;;;;4959772;28;20187;-89
2023/04/11 10:23:15;;;;;;;9.83;4.03;;;12.80;99.90;;;;;;4973281;28;20206;-90
2023/04/11 10:25:52;;;;;;;10.13;2.80;;;12.90;99.90;;;;;;4984918;28;20180;-91
2023/04/11 10:28:37;;;;;;;11.43;2.90;;;13.00;99.90;;;;;;4984278;28;20180;-91
2023/04/11 10:31:12;;;;;;;8.30;2.10;;;13.00;99.90;;;;;;4984513;28;20512;-91
2023/04/11 10:33:39;;;;;;;7.90;2.27;;;13.00;99.90;;;;;;4972295;28;20179;-88
2023/04/11 10:36:11;;;;;;;7.70;2.10;;;13.10;83.30;;;;;;4974714;28;20212;-89
2023/04/11 10:38:42;;;;;;;9.23;2.10;;;12.80;25.80;;;;;;4990704;28;20187;-90
2023/04/11 10:41:17;;;;;;;6.80;2.10;;;12.80;1.00;;;;;;4998657;28;20160;-90
2023/04/11 10:43:46;;;;;;;9.07;2.20;;;12.80;1.00;;;;;;4996553;28;20215;-88
2023/04/11 10:46:20;;;;;;;10.50;2.40;;;12.60;39.90;;;;;;4972316;28;20206;-90
2023/04/11 10:48:59;;;;;;;7.73;1.90;;;12.50;1.00;;;;;;4988894;28;20187;-91
2023/04/11 10:51:28;;;;;;;7.73;2.37;;;12.40;63.40;;;;;;4967020;28;20199;-93
2023/04/11 10:54:00;;;;;;;9.80;2.53;;;12.60;99.90;;;;;;4988005;28;20541;-93
2023/04/11 10:56:45;;;;;;;8.43;2.40;;;12.60;99.90;;;;;;4983570;28;20262;-91
2023/04/11 10:59:30;;;;;;;7.90;1.97;;;12.90;99.90;;;;;;4981927;28;20192;-91
2023/04/11 11:01:56;;;;;;;8.20;2.20;;;12.90;1.00;;;;;;4980602;28;20212;-94
2023/04/11 11:04:33;;;;;;;8.27;2.63;;;12.90;99.90;;;;;;4980440;28;20221;-93
2023/04/11 11:07:01;;;;;;;8.30;2.57;;;12.90;1.00;;;;;;4985344;28;20172;-93
2023/04/11 11:09:27;;;;;;;9.53;2.50;;;13.10;99.90;;;;;;4966416;28;20180;-92
2023/04/11 11:12:06;;;;;;;7.37;2.33;;;13.10;1.00;;;;;;4947043;28;20179;-90
2023/04/11 11:14:35;;;;;;;9.73;2.20;;;13.30;1.00;;;;;;4979614;28;20180;-89
2023/04/11 11:17:01;;;;;;;9.80;2.67;;;13.60;99.90;;;;;;4992155;28;20188;-92
2023/04/11 11:19:28;;;;;;;10.97;2.10;;;13.80;99.90;;;;;;4980802;28;20181;-93
2023/04/11 11:22:02;;;;;;;9.90;2.50;;;13.90;1.00;;;;;;4962687;28;20196;-90
2023/04/11 11:24:29;;;;;;;8.80;2.30;;;13.70;99.90;;;;;;4963714;28;20211;-87
2023/04/11 11:26:56;;;;;;;9.30;2.37;;;13.50;99.90;;;;;;4990613;28;20188;-87
2023/04/11 11:29:36;;;;;;;10.67;2.70;;;13.40;1.00;;;;;;4993377;28;20196;-87
2023/04/11 11:32:05;;;;;;;10.00;2.70;;;13.40;1.00;;;;;;4988010;28;20227;-89
2023/04/11 11:34:35;;;;;;;6.40;2.10;;;13.50;99.90;;;;;;4951753;28;20211;-88
2023/04/11 11:37:05;;;;;;;5.90;1.93;;;13.40;1.00;;;;;;4960017;28;20168;-87
2023/04/11 11:39:33;;;;;;;8.67;2.20;;;13.50;1.00;;;;;;4996562;28;20196;-89
2023/04/11 11:42:05;;;;;;;7.03;1.90;;;13.70;1.00;;;;;;4978224;28;20177;-90
2023/04/11 11:44:31;;;;;;;7.87;2.20;;;13.80;99.90;;;;;;4977904;28;20282;-87
2023/04/11 11:47:16;;;;;;;6.67;1.87;;;13.80;99.90;;;;;;4993088;28;20186;-87
2023/04/11 11:49:48;;;;;;;9.13;2.17;;;13.70;1.00;;;;;;4994393;28;20196;-93
2023/04/11 11:52:51;;;;;;;8.53;2.33;;;13.70;99.90;;;;;;5114173;23;20225;-86
2023/04/11 11:55:23;;;;;;;9.70;1.83;;;13.80;99.90;;;;;;4940349;28;1165510;-86
2023/04/11 11:57:49;;;;;;;11.17;2.40;;;13.80;1.00;;;;;;5010238;28;20182;-87
2023/04/11 12:00:26;;;;;;;9.50;2.13;;;13.80;9.30;;;;;;5004880;28;20177;-89
2023/04/11 12:02:56;;;;;;;9.03;2.47;;;13.90;1.00;;;;;;5001315;28;20630;-86
2023/04/11 12:05:28;;;;;;;12.20;2.47;;;13.80;1.00;;;;;;5001013;28;20267;-89
2023/04/11 12:07:58;;;;;;;11.23;2.80;;;13.70;3.60;;;;;;5016647;28;20171;-86
2023/04/11 12:10:37;;;;;;;10.70;2.70;;;13.80;99.90;;;;;;4998742;28;20188;-87
2023/04/11 12:13:26;;;;;;;10.83;2.57;;;13.80;99.90;;;;;;5007534;28;20178;-85
2023/04/11 12:15:55;;;;;;;13.07;3.33;;;13.80;1.00;;;;;;5030715;28;20167;-85
2023/04/11 12:18:26;;;;;;;7.83;2.27;;;14.00;1.00;;;;;;5016466;28;20202;-85
2023/04/11 12:20:52;;;;;;;12.87;2.47;;;14.20;14.40;;;;;;5010385;28;20215;-87
2023/04/11 12:23:19;;;;;;;9.00;2.43;;;14.40;99.90;;;;;;5001803;28;20230;-88
2023/04/11 12:25:45;;;;;;;8.83;2.17;;;14.50;99.90;;;;;;5000160;28;20176;-90
2023/04/11 12:28:15;;;;;;;10.20;2.40;;;14.60;99.90;;;;;;4998243;28;20169;-87
2023/04/11 12:30:40;;;;;;;10.83;2.10;;;14.80;99.90;;;;;;5006196;28;20166;-87
2023/04/11 12:33:06;;;;;;;5.83;1.77;;;14.90;1.00;;;;;;5020015;28;20235;-89
2023/04/11 12:35:35;;;;;;;7.23;1.93;;;15.00;1.00;;;;;;5015983;28;20626;-87
2023/04/11 12:38:02;;;;;;;7.90;2.00;;;15.10;1.00;;;;;;5011838;28;20182;-87
2023/04/11 12:40:31;;;;;;;9.37;2.33;;;15.10;99.90;;;;;;5019772;28;20191;-88
2023/04/11 12:42:57;;;;;;;8.10;2.20;;;14.80;99.90;;;;;;5009491;28;20265;-86
2023/04/11 12:45:26;;;;;;;6.80;2.43;;;14.60;1.00;;;;;;5008183;28;20225;-88
2023/04/11 12:47:55;;;;;;;10.10;2.37;;;14.50;1.00;;;;;;5022264;28;20194;-87
2023/04/11 12:50:24;;;;;;;10.03;2.50;;;14.20;1.00;;;;;;5021107;28;20605;-88
2023/04/11 12:52:50;;;;;;;11.57;2.77;;;14.20;1.00;;;;;;5014181;28;20180;-87
2023/04/11 12:55:18;;;;;;;10.03;2.97;;;14.20;1.00;;;;;;5035686;28;20253;-86
2023/04/11 12:57:44;;;;;;;10.33;2.40;;;14.10;1.00;;;;;;5037672;28;20158;-86
2023/04/11 13:00:11;;;;;;;7.97;2.20;;;14.20;1.00;;;;;;5032985;28;20186;-92
2023/04/11 13:02:42;;;;;;;7.10;2.33;;;14.20;1.00;;;;;;5027451;28;20162;-92
2023/04/11 13:05:12;;;;;;;7.67;2.20;;;14.10;82.60;;;;;;5024408;28;20547;-88
2023/04/11 13:07:45;;;;;;;7.80;2.57;;;14.20;99.90;;;;;;5042973;28;20177;-92